Time;durP1;ratioP1;P1;durP2;ratioP2;P2;SDS_P1;SDS_P2;PMS_P1;PMS_P2;Temp;Humidity;BMP_temperature;BMP_pressure;BME280_temperature;BME280_humidity;BME280_pressure;Samples;Min_cycle;Max_cycle;Signal;HPM_P1;HPM_P2
2021/12/23 15:34:32;;;;;;;;;;;;;;;1.21;82.69;99179.44;5125898;27;19989;-90
2021/12/23 15:36:58;;;;;;;;;;;;;;;1.02;84.48;99190.97;5114620;27;19923;-88
2021/12/23 15:39:31;;;;;;;;;;;;;;;0.98;84.80;99184.09;5109725;28;19920;-90
2021/12/23 15:41:58;;;;;;;;;;;;;;;0.94;84.79;99182.41;5108240;28;19916;-90
2021/12/23 15:44:24;;;;;;;;;;;;;;;0.95;84.66;99178.91;5107898;28;19922;-91
2021/12/23 15:46:50;;;;;;;;;;;;;;;0.95;84.34;99176.31;5116538;28;19916;-88
2021/12/23 15:49:15;;;;;;;;;;;;;;;0.89;84.29;99178.13;5108025;28;20457;-86
2021/12/23 15:51:42;;;;;;;;;;;;;;;0.90;84.10;99177.22;5109352;28;19916;-88
2021/12/23 15:54:07;;;;;;;;;;;;;;;0.89;84.04;99185.06;5107873;28;19927;-88
2021/12/23 15:56:33;;;;;;;;;;;;;;;0.84;83.70;99182.53;5109576;28;19920;-87
2021/12/23 15:58:58;;;;;;;;;;;;;;;0.83;83.77;99188.63;5107949;28;19924;-87
2021/12/23 16:01:24;;;;;;;;;;;;;;;0.79;83.52;99194.75;5108158;28;19916;-90
2021/12/23 16:03:52;;;;;;;;;;;;;;;0.76;83.63;99193.94;5107706;28;20381;-91
2021/12/23 16:09:01;;;;;;;;;;;;;;;0.73;83.55;99194.84;5108000;28;20451;-89
2021/12/23 16:11:28;;;;;;;;;;;;;;;0.75;83.39;99190.47;5109103;28;19998;-92
2021/12/23 16:13:53;;;;;;;;;;;;;;;0.74;83.20;99180.06;5108644;28;19969;-92
2021/12/23 16:16:18;;;;;;;;;;;;;;;0.71;83.05;99174.00;5107818;28;20800;-91
2021/12/23 16:18:44;;;;;;;;;;;;;;;0.72;83.05;99174.88;5108055;28;19912;-90
2021/12/23 16:21:09;;;;;;;;;;;;;;;0.70;83.01;99169.69;5108925;28;20388;-92
2021/12/23 16:23:34;;;;;;;;;;;;;;;0.70;82.92;99171.41;5106509;28;19912;-91
2021/12/23 16:25:59;;;;;;;;;;;;;;;0.68;82.91;99175.78;5108639;28;20012;-90
2021/12/23 16:28:25;;;;;;;;;;;;;;;0.70;82.94;99168.78;5107645;28;19916;-91
2021/12/23 16:30:51;;;;;;;;;;;;;;;0.67;82.90;99167.09;5107313;28;19923;-91
2021/12/23 16:33:16;;;;;;;;;;;;;;;0.65;82.71;99158.41;5107088;28;19959;-90
2021/12/23 16:35:43;;;;;;;;;;;;;;;0.69;82.72;99164.47;5107507;28;19924;-89
2021/12/23 16:38:09;;;;;;;;;;;;;;;0.69;82.95;99164.47;5105837;28;20012;-90
2021/12/23 16:40:36;;;;;;;;;;;;;;;0.67;82.92;99166.22;5115364;28;20006;-89
2021/12/23 16:43:02;;;;;;;;;;;;;;;0.64;83.30;99163.66;5108607;28;19927;-91
2021/12/23 16:45:28;;;;;;;;;;;;;;;0.61;83.20;99169.78;5101617;28;19921;-89
2021/12/23 16:47:54;;;;;;;;;;;;;;;0.64;83.19;99164.53;5102014;28;19952;-90
2021/12/23 16:50:20;;;;;;;;;;;;;;;0.66;83.20;99177.56;5093631;28;19963;-91
2021/12/23 16:52:48;;;;;;;;;;;;;;;0.63;82.99;99172.38;5093534;28;19923;-91
2021/12/23 16:55:21;;;;;;;;;;;;;;;0.62;82.87;99179.31;5093493;28;19942;-90
2021/12/23 16:57:51;;;;;;;;;;;;;;;0.63;82.69;99180.19;5094969;28;20003;-90
2021/12/23 17:00:21;;;;;;;;;;;;;;;0.60;82.70;99180.22;5094910;28;19928;-90
2021/12/23 17:02:48;;;;;;;;;;;;;;;0.60;82.69;99177.63;5093458;28;19912;-89
2021/12/23 17:05:14;;;;;;;;;;;;;;;0.60;82.52;99172.41;5093259;28;20333;-91
2021/12/23 17:07:41;;;;;;;;;;;;;;;0.58;82.68;99184.59;5099319;28;19967;-91
2021/12/23 17:10:06;;;;;;;;;;;;;;;0.54;82.54;99181.16;5094374;28;19916;-91
2021/12/23 17:12:32;;;;;;;;;;;;;;;0.56;82.38;99175.91;5093046;28;19920;-89
2021/12/23 17:14:57;;;;;;;;;;;;;;;0.52;82.16;99181.16;5092862;28;19917;-91
2021/12/23 17:17:22;;;;;;;;;;;;;;;0.53;82.19;99172.47;5093244;28;19916;-90
